createdAt,value
2023-06-16T00:01:16.730Z,14.40
2023-06-16T00:03:45.102Z,14.27
2023-06-16T00:06:15.234Z,14.17
2023-06-16T00:08:45.851Z,14.09
2023-06-16T00:11:17.039Z,14.06
2023-06-16T00:13:45.123Z,14.05
2023-06-16T00:16:12.016Z,14.04
2023-06-16T00:18:44.647Z,14.00
2023-06-16T00:21:14.327Z,13.97
2023-06-16T00:23:42.205Z,13.91
2023-06-16T00:26:08.852Z,13.85
2023-06-16T00:28:35.448Z,13.81
2023-06-16T00:31:01.970Z,13.78
2023-06-16T00:33:28.506Z,13.72
2023-06-16T00:35:55.282Z,13.69
2023-06-16T00:38:21.811Z,13.64
2023-06-16T00:40:48.288Z,13.62
2023-06-16T00:43:14.838Z,13.63
2023-06-16T00:45:45.598Z,13.62
2023-06-16T00:48:12.404Z,13.68
2023-06-16T00:50:40.293Z,13.83
2023-06-16T00:53:11.178Z,13.86
2023-06-16T00:55:37.992Z,13.85
2023-06-16T00:58:05.446Z,13.78
2023-06-16T01:00:37.085Z,13.70
2023-06-16T01:03:09.997Z,13.61
2023-06-16T01:05:43.057Z,13.47
2023-06-16T01:08:21.725Z,13.35
2023-06-16T01:10:48.148Z,13.29
2023-06-16T01:13:25.706Z,13.25
2023-06-16T01:15:52.870Z,13.18
2023-06-16T01:18:24.472Z,13.08
2023-06-16T01:21:44.340Z,13.00
2023-06-16T01:24:18.235Z,12.92
2023-06-16T01:26:51.247Z,12.88
2023-06-16T01:29:18.980Z,12.87
2023-06-16T01:31:47.347Z,12.89
2023-06-16T01:34:16.326Z,12.91
2023-06-16T01:36:44.158Z,12.93
2023-06-16T01:39:11.431Z,12.95
2023-06-16T01:41:39.826Z,12.96
2023-06-16T01:44:07.581Z,12.95
2023-06-16T01:46:35.015Z,12.93
2023-06-16T01:49:02.835Z,12.91
2023-06-16T01:51:29.659Z,12.86
2023-06-16T01:53:57.452Z,12.81
2023-06-16T01:56:23.984Z,12.76
2023-06-16T01:58:51.197Z,12.66
2023-06-16T02:01:24.532Z,12.59
2023-06-16T02:04:00.595Z,12.53
2023-06-16T02:07:10.284Z,12.44
2023-06-16T02:09:39.513Z,12.37
2023-06-16T02:12:08.166Z,12.31
2023-06-16T02:14:36.182Z,12.29
2023-06-16T02:17:07.009Z,12.27
2023-06-16T02:19:33.719Z,12.18
2023-06-16T02:22:00.575Z,12.14
2023-06-16T02:24:28.119Z,12.18
2023-06-16T02:26:54.710Z,12.24
2023-06-16T02:29:21.763Z,12.27
2023-06-16T02:31:51.409Z,12.27
2023-06-16T02:34:18.693Z,12.23
2023-06-16T02:36:45.422Z,12.21
2023-06-16T02:39:12.109Z,12.21
2023-06-16T02:41:38.719Z,12.26
2023-06-16T02:44:05.659Z,12.29
2023-06-16T02:46:32.218Z,12.27
2023-06-16T02:48:58.857Z,12.21
2023-06-16T02:51:25.941Z,12.20
2023-06-16T02:53:52.954Z,12.14
2023-06-16T02:56:22.460Z,12.09
2023-06-16T02:59:20.485Z,12.06
2023-06-16T03:02:26.767Z,12.00
2023-06-16T03:04:54.268Z,12.08
2023-06-16T03:07:20.926Z,12.07
2023-06-16T03:09:47.832Z,12.02
2023-06-16T03:12:14.721Z,12.01
2023-06-16T03:14:42.164Z,12.03
2023-06-16T03:17:09.007Z,12.02
2023-06-16T03:19:35.579Z,11.97
2023-06-16T03:22:02.801Z,11.93
2023-06-16T03:24:34.924Z,11.92
2023-06-16T03:27:04.596Z,11.88
2023-06-16T03:29:31.551Z,11.83
2023-06-16T03:31:58.118Z,11.89
2023-06-16T03:34:25.429Z,11.91
2023-06-16T03:36:52.478Z,12.00
2023-06-16T03:39:19.834Z,12.04
2023-06-16T03:41:47.738Z,12.03
2023-06-16T03:44:20.042Z,12.02
2023-06-16T03:46:51.859Z,12.05
2023-06-16T03:49:18.835Z,12.07
2023-06-16T03:51:46.323Z,12.03
2023-06-16T03:54:13.096Z,11.99
2023-06-16T03:56:40.413Z,11.92
2023-06-16T03:59:07.075Z,11.88
2023-06-16T04:01:33.952Z,11.85
2023-06-16T04:04:00.900Z,11.83
2023-06-16T04:06:27.438Z,11.86
2023-06-16T04:08:54.042Z,11.88
2023-06-16T04:11:21.295Z,11.86
2023-06-16T04:13:48.779Z,11.95
2023-06-16T04:16:15.737Z,12.05
2023-06-16T04:18:42.493Z,12.10
2023-06-16T04:21:11.253Z,12.14
2023-06-16T04:23:37.817Z,12.23
2023-06-16T04:26:04.452Z,12.31
2023-06-16T04:28:31.253Z,12.47
2023-06-16T04:30:58.085Z,12.58
2023-06-16T04:33:25.621Z,12.70
2023-06-16T04:35:52.562Z,12.78
2023-06-16T04:38:21.266Z,12.87
2023-06-16T04:40:48.288Z,12.99
2023-06-16T04:43:15.772Z,13.10
2023-06-16T04:45:42.881Z,13.22
2023-06-16T04:48:10.205Z,13.36
2023-06-16T04:50:37.672Z,13.50
2023-06-16T04:53:06.827Z,13.61
2023-06-16T04:55:33.607Z,13.75
2023-06-16T04:58:00.542Z,13.89
2023-06-16T05:00:29.378Z,14.04
2023-06-16T05:02:56.253Z,14.19
2023-06-16T05:05:23.424Z,14.43
2023-06-16T05:07:50.080Z,14.71
2023-06-16T05:10:17.090Z,14.92
2023-06-16T05:12:44.984Z,14.98
2023-06-16T05:15:16.143Z,15.10
2023-06-16T05:17:43.393Z,15.22
2023-06-16T05:20:11.093Z,15.53
2023-06-16T05:22:37.756Z,16.27
2023-06-16T05:25:09.839Z,17.17
2023-06-16T05:27:37.175Z,17.91
2023-06-16T05:30:04.450Z,18.49
2023-06-16T05:32:31.123Z,18.64
2023-06-16T05:34:57.895Z,18.97
2023-06-16T05:37:24.452Z,19.28
2023-06-16T05:39:51.621Z,20.03
2023-06-16T05:42:18.281Z,20.92
2023-06-16T05:44:45.872Z,21.13
2023-06-16T05:47:13.044Z,20.84
2023-06-16T05:49:39.731Z,20.97
2023-06-16T05:52:07.414Z,21.13
2023-06-16T05:54:34.468Z,20.95
2023-06-16T05:57:01.982Z,21.42
2023-06-16T05:59:29.511Z,21.86
2023-06-16T06:01:56.770Z,22.15
2023-06-16T06:04:34.268Z,21.98
2023-06-16T06:07:02.188Z,22.02
2023-06-16T06:09:29.172Z,22.24
2023-06-16T06:11:55.888Z,22.58
2023-06-16T06:14:22.829Z,22.62
2023-06-16T06:16:52.398Z,22.95
2023-06-16T06:19:20.546Z,23.40
2023-06-16T06:21:47.307Z,23.86
2023-06-16T06:24:15.710Z,23.43
2023-06-16T06:26:44.393Z,23.99
2023-06-16T06:29:11.550Z,23.76
2023-06-16T06:31:38.680Z,23.30
2023-06-16T06:34:05.824Z,23.55
2023-06-16T06:36:35.724Z,23.03
2023-06-16T06:39:02.782Z,22.77
2023-06-16T06:41:29.840Z,22.95
2023-06-16T06:43:56.600Z,23.46
2023-06-16T06:46:23.691Z,23.55
2023-06-16T06:48:50.737Z,22.77
2023-06-16T06:51:17.870Z,22.90
2023-06-16T06:53:45.081Z,23.24
2023-06-16T06:56:12.514Z,22.32
2023-06-16T06:58:39.206Z,23.32
2023-06-16T07:01:06.402Z,23.76
2023-06-16T07:03:33.618Z,24.42
2023-06-16T07:06:00.985Z,24.93
2023-06-16T07:08:27.845Z,25.05
2023-06-16T07:10:54.491Z,25.43
2023-06-16T07:13:21.109Z,24.91
2023-06-16T07:15:48.066Z,25.18
2023-06-16T07:18:14.773Z,25.18
2023-06-16T07:20:41.793Z,24.91
2023-06-16T07:23:09.731Z,25.06
2023-06-16T07:25:37.693Z,25.65
2023-06-16T07:28:08.983Z,25.75
2023-06-16T07:30:35.864Z,25.70
2023-06-16T07:33:02.660Z,25.76
2023-06-16T07:35:29.483Z,25.42
2023-06-16T07:38:02.201Z,25.76
2023-06-16T07:40:28.927Z,26.29
2023-06-16T07:42:55.763Z,25.16
2023-06-16T07:45:22.554Z,25.49
2023-06-16T07:47:49.617Z,25.13
2023-06-16T07:50:17.171Z,24.43
2023-06-16T07:52:44.133Z,23.27
2023-06-16T07:55:13.830Z,21.99
2023-06-16T07:57:40.805Z,21.81
2023-06-16T08:00:12.752Z,21.52
2023-06-16T08:02:41.637Z,21.75
2023-06-16T08:05:09.643Z,21.60
2023-06-16T08:07:36.940Z,21.68
2023-06-16T08:10:05.453Z,22.01
2023-06-16T08:12:35.131Z,22.13
2023-06-16T08:15:03.281Z,22.00
2023-06-16T08:17:29.999Z,21.93
2023-06-16T08:19:56.957Z,21.87
2023-06-16T08:22:24.211Z,21.86
2023-06-16T08:24:51.217Z,22.14
2023-06-16T08:27:17.923Z,21.92
2023-06-16T08:29:44.680Z,21.91
2023-06-16T08:32:11.941Z,22.04
2023-06-16T08:34:38.530Z,22.24
2023-06-16T08:37:13.978Z,22.19
2023-06-16T08:39:44.160Z,22.12
2023-06-16T08:42:13.978Z,22.12
2023-06-16T08:44:41.474Z,22.32
2023-06-16T08:47:09.321Z,22.38
2023-06-16T08:49:36.375Z,22.36
2023-06-16T08:52:04.623Z,22.33
2023-06-16T08:54:48.084Z,22.10
2023-06-16T08:57:15.670Z,22.25
2023-06-16T08:59:46.424Z,21.80
2023-06-16T09:02:13.433Z,21.42
2023-06-16T09:04:42.661Z,21.73
2023-06-16T09:07:10.711Z,22.01
2023-06-16T09:09:38.349Z,22.15
2023-06-16T09:12:12.358Z,22.30
2023-06-16T09:14:39.882Z,22.34
2023-06-16T09:17:08.205Z,22.55
2023-06-16T09:19:42.372Z,22.56
2023-06-16T09:22:14.277Z,22.58
2023-06-16T09:24:42.158Z,22.24
2023-06-16T09:27:09.503Z,22.20
2023-06-16T09:29:38.518Z,22.51
2023-06-16T09:32:10.163Z,22.54
2023-06-16T09:34:37.332Z,22.36
2023-06-16T09:37:07.541Z,22.46
2023-06-16T09:39:35.035Z,22.41
2023-06-16T09:42:02.415Z,22.62
2023-06-16T09:44:31.138Z,22.34
2023-06-16T09:47:01.979Z,22.29
2023-06-16T09:49:28.877Z,22.52
2023-06-16T09:51:57.366Z,22.25
2023-06-16T09:54:27.058Z,22.41
2023-06-16T09:56:56.659Z,22.06
2023-06-16T09:59:24.930Z,22.20
2023-06-16T10:01:55.119Z,22.18
2023-06-16T10:04:24.003Z,22.15
2023-06-16T10:06:58.577Z,22.12
2023-06-16T10:09:29.462Z,22.33
2023-06-16T10:11:58.236Z,22.48
2023-06-16T10:14:31.663Z,22.88
2023-06-16T10:16:59.618Z,23.01
2023-06-16T10:19:29.648Z,23.13
2023-06-16T10:21:56.563Z,23.34
2023-06-16T10:24:24.902Z,22.97
2023-06-16T10:26:52.177Z,22.64
2023-06-16T10:29:21.755Z,22.51
2023-06-16T10:31:50.401Z,22.69
2023-06-16T10:34:22.846Z,22.87
2023-06-16T10:36:50.927Z,23.00
2023-06-16T10:39:17.647Z,22.88
2023-06-16T10:42:00.733Z,22.98
2023-06-16T10:44:32.482Z,23.29
2023-06-16T10:47:14.046Z,23.51
2023-06-16T10:50:03.841Z,23.63
2023-06-16T10:52:31.099Z,23.27
2023-06-16T10:54:58.918Z,23.63
2023-06-16T10:57:26.816Z,23.68
2023-06-16T11:00:17.229Z,23.17
2023-06-16T11:02:52.520Z,22.79
2023-06-16T11:05:23.988Z,23.01
2023-06-16T11:08:04.401Z,23.06
2023-06-16T11:10:31.384Z,23.27
2023-06-16T11:12:58.399Z,23.32
2023-06-16T11:15:26.444Z,23.30
2023-06-16T11:17:53.412Z,23.41
2023-06-16T11:20:23.080Z,23.56
2023-06-16T11:22:52.117Z,23.66
2023-06-16T11:25:18.909Z,23.79
2023-06-16T11:27:45.843Z,24.02
2023-06-16T11:30:12.793Z,23.88
2023-06-16T11:32:41.834Z,23.16
2023-06-16T11:35:09.006Z,23.53
2023-06-16T11:37:49.056Z,23.57
2023-06-16T11:40:29.534Z,23.52
2023-06-16T11:43:00.840Z,23.13
2023-06-16T11:45:29.426Z,23.62
2023-06-16T11:47:57.218Z,24.33
2023-06-16T11:50:25.889Z,24.28
2023-06-16T11:52:53.782Z,24.12
2023-06-16T11:55:21.380Z,24.07
2023-06-16T11:57:48.221Z,23.95
2023-06-16T12:00:16.995Z,23.86
2023-06-16T12:02:45.600Z,23.94
2023-06-16T12:05:21.007Z,23.81
2023-06-16T12:07:47.522Z,23.94
2023-06-16T12:10:16.024Z,23.82
2023-06-16T12:12:43.783Z,23.61
2023-06-16T12:15:14.577Z,23.19
2023-06-16T12:17:41.209Z,23.20
2023-06-16T12:20:11.342Z,23.43
2023-06-16T12:22:39.799Z,23.79
2023-06-16T12:25:15.405Z,24.05
2023-06-16T12:27:50.456Z,23.85
2023-06-16T12:30:17.448Z,24.31
2023-06-16T12:32:46.341Z,24.38
2023-06-16T12:35:14.083Z,24.17
2023-06-16T12:37:42.775Z,24.12
2023-06-16T12:40:13.081Z,24.10
2023-06-16T12:42:41.994Z,24.08
2023-06-16T12:45:09.162Z,24.17
2023-06-16T12:47:37.346Z,24.60
2023-06-16T12:50:05.786Z,24.60
2023-06-16T12:52:32.686Z,24.16
2023-06-16T12:55:01.032Z,23.54
2023-06-16T12:57:28.688Z,23.50
2023-06-16T12:59:56.020Z,23.61
2023-06-16T13:02:26.138Z,24.35
2023-06-16T13:04:52.942Z,24.28
2023-06-16T13:07:19.726Z,24.47
2023-06-16T13:09:46.283Z,24.43
2023-06-16T13:12:13.646Z,24.87
2023-06-16T13:14:40.599Z,25.15
2023-06-16T13:17:07.440Z,25.26
2023-06-16T13:19:34.229Z,25.18
2023-06-16T13:22:03.231Z,25.12
2023-06-16T13:24:31.081Z,25.12
2023-06-16T13:26:58.211Z,25.55
2023-06-16T13:29:25.471Z,25.31
2023-06-16T13:31:52.191Z,25.43
2023-06-16T13:34:18.700Z,25.17
2023-06-16T13:36:45.291Z,24.46
2023-06-16T13:39:12.135Z,24.28
2023-06-16T13:41:38.719Z,23.62
2023-06-16T13:44:05.578Z,23.22
2023-06-16T13:46:32.196Z,23.18
2023-06-16T13:48:58.922Z,23.28
2023-06-16T13:51:25.638Z,23.78
2023-06-16T13:53:52.579Z,23.76
2023-06-16T13:56:19.476Z,23.32
2023-06-16T13:58:46.694Z,23.18
2023-06-16T14:01:13.404Z,23.05
2023-06-16T14:03:40.352Z,23.06
2023-06-16T14:06:07.722Z,22.92
2023-06-16T14:08:34.281Z,23.42
2023-06-16T14:11:02.014Z,24.14
2023-06-16T14:13:28.524Z,24.64
2023-06-16T14:15:55.137Z,24.58
2023-06-16T14:18:22.467Z,24.79
2023-06-16T14:20:49.471Z,24.86
2023-06-16T14:23:17.897Z,25.24
2023-06-16T14:25:46.530Z,25.43
2023-06-16T14:28:15.678Z,25.55
2023-06-16T14:30:42.393Z,25.63
2023-06-16T14:33:11.198Z,25.13
2023-06-16T14:35:38.527Z,25.51
2023-06-16T14:38:06.726Z,25.71
2023-06-16T14:40:34.107Z,25.69
2023-06-16T14:43:00.924Z,26.00
2023-06-16T14:45:27.451Z,25.81
2023-06-16T14:47:54.102Z,25.52
2023-06-16T14:50:23.870Z,25.77
2023-06-16T14:52:51.062Z,25.98
2023-06-16T14:55:17.630Z,26.33
2023-06-16T14:57:44.381Z,26.46
2023-06-16T15:00:11.501Z,26.01
2023-06-16T15:02:38.275Z,25.77
2023-06-16T15:05:07.209Z,25.93
2023-06-16T15:07:33.834Z,25.68
2023-06-16T15:10:00.374Z,25.82
2023-06-16T15:12:26.921Z,25.61
2023-06-16T15:14:53.463Z,25.29
2023-06-16T15:17:20.518Z,25.38
2023-06-16T15:19:47.019Z,25.55
2023-06-16T15:22:13.700Z,25.49
2023-06-16T15:24:40.450Z,25.74
2023-06-16T15:27:08.421Z,25.53
2023-06-16T15:29:35.113Z,25.42
2023-06-16T15:32:01.684Z,25.73
2023-06-16T15:34:28.291Z,25.76
2023-06-16T15:36:54.931Z,25.85
2023-06-16T15:39:24.478Z,25.83
2023-06-16T15:41:51.307Z,26.07
2023-06-16T15:44:17.958Z,26.03
2023-06-16T15:46:46.360Z,26.05
2023-06-16T15:49:13.058Z,25.70
2023-06-16T15:51:40.621Z,25.21
2023-06-16T15:54:09.225Z,25.19
2023-06-16T15:56:36.099Z,25.29
2023-06-16T15:59:02.743Z,25.25
2023-06-16T16:01:29.596Z,25.41
2023-06-16T16:03:56.832Z,25.75
2023-06-16T16:06:24.098Z,26.05
2023-06-16T16:08:51.292Z,26.08
2023-06-16T16:11:18.077Z,26.28
2023-06-16T16:13:44.798Z,26.37
2023-06-16T16:16:11.637Z,26.86
2023-06-16T16:18:39.142Z,26.45
2023-06-16T16:21:06.091Z,26.52
2023-06-16T16:23:33.032Z,26.21
2023-06-16T16:26:01.066Z,25.78
2023-06-16T16:28:28.044Z,26.43
2023-06-16T16:30:57.028Z,26.64
2023-06-16T16:33:23.956Z,26.43
2023-06-16T16:35:50.869Z,26.68
2023-06-16T16:38:17.518Z,26.31
2023-06-16T16:40:52.297Z,26.14
2023-06-16T16:43:18.884Z,25.96
2023-06-16T16:45:45.504Z,26.47
2023-06-16T16:48:12.084Z,26.40
2023-06-16T16:50:38.658Z,26.03
2023-06-16T16:53:06.502Z,25.70
2023-06-16T16:55:36.738Z,25.44
2023-06-16T16:58:04.716Z,25.55
2023-06-16T17:00:31.724Z,26.07
2023-06-16T17:02:58.344Z,26.44
2023-06-16T17:05:25.074Z,26.44
2023-06-16T17:07:51.739Z,26.54
2023-06-16T17:10:18.609Z,26.01
2023-06-16T17:12:45.474Z,25.47
2023-06-16T17:15:12.208Z,25.37
2023-06-16T17:17:39.005Z,25.24
2023-06-16T17:20:06.365Z,25.22
2023-06-16T17:22:32.905Z,24.83
2023-06-16T17:24:59.439Z,25.22
2023-06-16T17:27:25.944Z,25.52
2023-06-16T17:29:52.693Z,25.21
2023-06-16T17:32:19.323Z,24.80
2023-06-16T17:34:45.863Z,24.76
2023-06-16T17:37:12.415Z,25.01
2023-06-16T17:39:39.123Z,24.95
2023-06-16T17:42:05.733Z,25.12
2023-06-16T17:44:32.204Z,25.09
2023-06-16T17:47:01.127Z,25.00
2023-06-16T17:49:28.130Z,24.04
2023-06-16T17:52:02.036Z,23.71
2023-06-16T17:54:28.824Z,23.42
2023-06-16T17:56:55.534Z,23.28
2023-06-16T17:59:23.923Z,23.12
2023-06-16T18:01:50.532Z,22.98
2023-06-16T18:04:18.521Z,22.87
2023-06-16T18:06:45.164Z,22.75
2023-06-16T18:09:11.709Z,22.61
2023-06-16T18:11:38.911Z,22.52
2023-06-16T18:14:05.810Z,22.42
2023-06-16T18:16:32.622Z,22.30
2023-06-16T18:19:00.010Z,22.19
2023-06-16T18:21:27.993Z,22.09
2023-06-16T18:23:54.885Z,21.99
2023-06-16T18:26:21.567Z,21.89
2023-06-16T18:28:48.610Z,21.82
2023-06-16T18:31:15.137Z,21.73
2023-06-16T18:33:41.712Z,21.61
2023-06-16T18:36:08.276Z,21.54
2023-06-16T18:38:34.886Z,21.42
2023-06-16T18:41:02.074Z,21.28
2023-06-16T18:43:28.917Z,21.20
2023-06-16T18:45:55.868Z,21.14
2023-06-16T18:48:22.726Z,21.04
2023-06-16T18:50:49.330Z,20.93
2023-06-16T18:53:17.073Z,20.84
2023-06-16T18:55:43.845Z,20.72
2023-06-16T18:58:11.125Z,20.62
2023-06-16T19:00:37.907Z,20.50
2023-06-16T19:03:04.538Z,20.39
2023-06-16T19:05:31.396Z,20.27
2023-06-16T19:07:58.172Z,20.14
2023-06-16T19:10:24.962Z,20.00
2023-06-16T19:12:53.761Z,19.89
2023-06-16T19:15:21.595Z,19.81
2023-06-16T19:17:48.777Z,19.68
2023-06-16T19:20:16.282Z,19.59
2023-06-16T19:22:43.633Z,19.50
2023-06-16T19:25:12.588Z,19.41
2023-06-16T19:27:39.655Z,19.28
2023-06-16T19:30:09.805Z,19.19
2023-06-16T19:32:37.059Z,19.10
2023-06-16T19:35:05.065Z,19.07
2023-06-16T19:37:32.149Z,19.03
2023-06-16T19:39:59.999Z,18.90
2023-06-16T19:42:27.159Z,18.80
2023-06-16T19:44:55.376Z,18.67
2023-06-16T19:47:23.396Z,18.52
2023-06-16T19:49:50.889Z,18.34
2023-06-16T19:52:17.643Z,18.16
2023-06-16T19:54:44.342Z,17.98
2023-06-16T19:57:12.237Z,17.78
2023-06-16T19:59:39.757Z,17.62
2023-06-16T20:02:07.753Z,17.49
2023-06-16T20:04:35.467Z,17.40
2023-06-16T20:07:03.505Z,17.37
2023-06-16T20:09:30.315Z,17.32
2023-06-16T20:11:56.987Z,17.20
2023-06-16T20:14:23.845Z,17.12
2023-06-16T20:16:50.754Z,17.07
2023-06-16T20:19:17.596Z,17.02
2023-06-16T20:21:44.425Z,17.10
2023-06-16T20:24:12.425Z,17.28
2023-06-16T20:26:39.951Z,17.39
2023-06-16T20:29:07.125Z,17.45
2023-06-16T20:31:34.790Z,17.54
2023-06-16T20:34:02.073Z,17.46
2023-06-16T20:36:30.623Z,17.46
2023-06-16T20:39:01.585Z,17.37
2023-06-16T20:41:29.781Z,17.35
2023-06-16T20:43:56.865Z,17.35
2023-06-16T20:46:24.616Z,17.32
2023-06-16T20:48:53.260Z,17.24
2023-06-16T20:51:19.975Z,17.11
2023-06-16T20:53:47.416Z,16.99
2023-06-16T20:56:24.128Z,16.87
2023-06-16T20:59:12.159Z,16.75
2023-06-16T21:01:45.064Z,16.66
2023-06-16T21:04:12.889Z,16.61
2023-06-16T21:06:41.389Z,16.84
2023-06-16T21:09:10.638Z,16.83
2023-06-16T21:11:37.677Z,16.70
2023-06-16T21:14:04.583Z,16.65
2023-06-16T21:16:31.819Z,16.53
2023-06-16T21:18:58.975Z,16.56
2023-06-16T21:21:25.596Z,16.58
2023-06-16T21:23:53.816Z,16.66
2023-06-16T21:26:21.798Z,16.69
2023-06-16T21:28:52.488Z,16.62
2023-06-16T21:31:19.244Z,16.63
2023-06-16T21:33:47.183Z,16.66
2023-06-16T21:36:15.433Z,16.67
2023-06-16T21:38:42.826Z,16.73
2023-06-16T21:41:11.113Z,16.65
2023-06-16T21:43:41.431Z,16.57
2023-06-16T21:46:08.200Z,16.47
2023-06-16T21:48:34.836Z,16.43
2023-06-16T21:51:01.551Z,16.42
2023-06-16T21:53:37.394Z,16.38
2023-06-16T21:56:04.273Z,16.37
2023-06-16T21:58:30.929Z,16.37
2023-06-16T22:00:57.598Z,16.36
2023-06-16T22:03:24.606Z,16.33
2023-06-16T22:05:51.254Z,16.25
2023-06-16T22:08:18.034Z,16.18
2023-06-16T22:10:44.606Z,16.13
2023-06-16T22:13:12.889Z,16.09
2023-06-16T22:15:44.363Z,16.09
2023-06-16T22:18:13.051Z,16.04
2023-06-16T22:20:40.593Z,16.01
2023-06-16T22:23:08.368Z,15.98
2023-06-16T22:25:35.304Z,15.92
2023-06-16T22:28:02.166Z,15.86
2023-06-16T22:30:30.752Z,15.78
2023-06-16T22:32:58.367Z,15.69
2023-06-16T22:35:25.889Z,15.61
2023-06-16T22:37:52.684Z,15.57
2023-06-16T22:40:19.543Z,15.54
2023-06-16T22:42:46.286Z,15.51
2023-06-16T22:45:13.306Z,15.56
2023-06-16T22:47:42.757Z,15.47
2023-06-16T22:50:10.454Z,15.42
2023-06-16T22:52:40.873Z,15.39
2023-06-16T22:55:09.184Z,15.37
2023-06-16T22:57:35.986Z,15.34
2023-06-16T23:00:02.712Z,15.23
2023-06-16T23:02:29.319Z,15.18
2023-06-16T23:04:55.999Z,15.10
2023-06-16T23:07:22.541Z,15.12
2023-06-16T23:09:49.054Z,15.07
2023-06-16T23:12:15.633Z,15.07
2023-06-16T23:14:42.164Z,15.14
2023-06-16T23:17:08.757Z,15.17
2023-06-16T23:19:35.574Z,15.26
2023-06-16T23:22:04.008Z,15.29
2023-06-16T23:24:30.815Z,15.26
2023-06-16T23:26:59.429Z,15.36
2023-06-16T23:29:27.475Z,15.34
2023-06-16T23:31:54.691Z,15.32
2023-06-16T23:34:22.372Z,15.35
2023-06-16T23:36:49.046Z,15.41
2023-06-16T23:39:15.791Z,15.45
2023-06-16T23:41:42.399Z,15.41
2023-06-16T23:44:09.648Z,15.39
2023-06-16T23:46:36.471Z,15.38
2023-06-16T23:49:03.257Z,15.30
2023-06-16T23:51:29.802Z,15.23
2023-06-16T23:53:56.318Z,15.27
2023-06-16T23:56:22.902Z,15.28
2023-06-16T23:58:49.481Z,15.24
